sensor_id;sensor_type;location;lat;lon;timestamp;P1;durP1;ratioP1;P2;durP2;ratioP2
40072;SDS011;25774;52.256;9.356;2023-11-22T00:01:13;1.63;;;0.87;;
40072;SDS011;25774;52.256;9.356;2023-11-22T00:03:39;1.90;;;0.80;;
40072;SDS011;25774;52.256;9.356;2023-11-22T00:06:05;1.90;;;0.93;;
40072;SDS011;25774;52.256;9.356;2023-11-22T00:08:32;2.13;;;1.10;;
40072;SDS011;25774;52.256;9.356;2023-11-22T00:10:59;1.92;;;0.93;;
40072;SDS011;25774;52.256;9.356;2023-11-22T00:13:24;1.75;;;0.80;;
40072;SDS011;25774;52.256;9.356;2023-11-22T00:15:49;2.47;;;1.00;;
40072;SDS011;25774;52.256;9.356;2023-11-22T00:18:15;1.77;;;0.95;;
40072;SDS011;25774;52.256;9.356;2023-11-22T00:20:41;1.67;;;0.83;;
40072;SDS011;25774;52.256;9.356;2023-11-22T00:23:06;1.90;;;1.00;;
40072;SDS011;25774;52.256;9.356;2023-11-22T00:25:33;2.03;;;1.20;;
40072;SDS011;25774;52.256;9.356;2023-11-22T00:27:59;1.92;;;0.90;;
40072;SDS011;25774;52.256;9.356;2023-11-22T00:30:25;2.45;;;1.10;;
40072;SDS011;25774;52.256;9.356;2023-11-22T00:32:50;2.40;;;1.30;;
40072;SDS011;25774;52.256;9.356;2023-11-22T00:35:16;2.08;;;1.05;;
40072;SDS011;25774;52.256;9.356;2023-11-22T00:37:42;2.80;;;1.40;;
40072;SDS011;25774;52.256;9.356;2023-11-22T00:40:08;4.28;;;2.10;;
40072;SDS011;25774;52.256;9.356;2023-11-22T00:42:36;4.38;;;1.75;;
40072;SDS011;25774;52.256;9.356;2023-11-22T00:45:02;3.20;;;1.35;;
40072;SDS011;25774;52.256;9.356;2023-11-22T00:47:30;2.92;;;1.50;;
40072;SDS011;25774;52.256;9.356;2023-11-22T00:49:55;2.17;;;1.03;;
40072;SDS011;25774;52.256;9.356;2023-11-22T00:52:21;3.42;;;1.73;;
40072;SDS011;25774;52.256;9.356;2023-11-22T00:54:48;3.40;;;1.57;;
40072;SDS011;25774;52.256;9.356;2023-11-22T00:57:13;2.58;;;1.23;;
40072;SDS011;25774;52.256;9.356;2023-11-22T00:59:38;2.70;;;1.50;;
40072;SDS011;25774;52.256;9.356;2023-11-22T01:02:03;1.97;;;1.13;;
40072;SDS011;25774;52.256;9.356;2023-11-22T01:04:30;2.67;;;1.38;;
40072;SDS011;25774;52.256;9.356;2023-11-22T01:06:59;2.85;;;1.25;;
40072;SDS011;25774;52.256;9.356;2023-11-22T01:09:24;3.00;;;1.40;;
40072;SDS011;25774;52.256;9.356;2023-11-22T01:11:49;2.40;;;1.40;;
40072;SDS011;25774;52.256;9.356;2023-11-22T01:14:14;2.83;;;1.30;;
40072;SDS011;25774;52.256;9.356;2023-11-22T01:16:39;1.93;;;1.13;;
40072;SDS011;25774;52.256;9.356;2023-11-22T01:19:05;2.70;;;1.37;;
40072;SDS011;25774;52.256;9.356;2023-11-22T01:21:31;1.97;;;1.13;;
40072;SDS011;25774;52.256;9.356;2023-11-22T01:23:57;2.75;;;1.65;;
40072;SDS011;25774;52.256;9.356;2023-11-22T01:26:23;2.30;;;1.25;;
40072;SDS011;25774;52.256;9.356;2023-11-22T01:28:49;2.00;;;1.02;;
40072;SDS011;25774;52.256;9.356;2023-11-22T01:31:16;2.17;;;1.15;;
40072;SDS011;25774;52.256;9.356;2023-11-22T01:33:45;2.00;;;1.20;;
40072;SDS011;25774;52.256;9.356;2023-11-22T01:36:11;1.95;;;1.05;;
40072;SDS011;25774;52.256;9.356;2023-11-22T01:38:37;1.70;;;1.00;;
40072;SDS011;25774;52.256;9.356;2023-11-22T01:41:04;2.38;;;1.17;;
40072;SDS011;25774;52.256;9.356;2023-11-22T01:43:29;1.83;;;1.00;;
40072;SDS011;25774;52.256;9.356;2023-11-22T01:45:55;1.60;;;0.87;;
40072;SDS011;25774;52.256;9.356;2023-11-22T01:48:20;2.00;;;1.00;;
40072;SDS011;25774;52.256;9.356;2023-11-22T01:50:46;2.55;;;0.93;;
40072;SDS011;25774;52.256;9.356;2023-11-22T01:55:39;1.55;;;0.82;;
40072;SDS011;25774;52.256;9.356;2023-11-22T01:58:04;2.22;;;1.15;;
40072;SDS011;25774;52.256;9.356;2023-11-22T02:00:31;2.20;;;1.13;;
40072;SDS011;25774;52.256;9.356;2023-11-22T02:02:57;1.73;;;0.77;;
40072;SDS011;25774;52.256;9.356;2023-11-22T02:05:22;1.53;;;0.83;;
40072;SDS011;25774;52.256;9.356;2023-11-22T02:07:48;1.63;;;0.90;;
40072;SDS011;25774;52.256;9.356;2023-11-22T02:10:13;1.83;;;0.90;;
40072;SDS011;25774;52.256;9.356;2023-11-22T02:12:38;1.67;;;0.97;;
40072;SDS011;25774;52.256;9.356;2023-11-22T02:15:04;2.47;;;1.10;;
40072;SDS011;25774;52.256;9.356;2023-11-22T02:17:29;1.70;;;0.73;;
40072;SDS011;25774;52.256;9.356;2023-11-22T02:19:54;2.90;;;1.13;;
40072;SDS011;25774;52.256;9.356;2023-11-22T02:22:20;2.13;;;1.10;;
40072;SDS011;25774;52.256;9.356;2023-11-22T02:24:45;3.50;;;1.63;;
40072;SDS011;25774;52.256;9.356;2023-11-22T02:27:10;3.47;;;1.63;;
40072;SDS011;25774;52.256;9.356;2023-11-22T02:29:36;3.05;;;1.33;;
40072;SDS011;25774;52.256;9.356;2023-11-22T02:32:01;2.57;;;1.17;;
40072;SDS011;25774;52.256;9.356;2023-11-22T02:34:26;2.33;;;1.40;;
40072;SDS011;25774;52.256;9.356;2023-11-22T02:36:52;3.20;;;1.70;;
40072;SDS011;25774;52.256;9.356;2023-11-22T02:39:17;2.87;;;1.50;;
40072;SDS011;25774;52.256;9.356;2023-11-22T02:41:43;4.40;;;1.67;;
40072;SDS011;25774;52.256;9.356;2023-11-22T02:44:09;3.20;;;1.52;;
40072;SDS011;25774;52.256;9.356;2023-11-22T02:46:35;3.73;;;1.90;;
40072;SDS011;25774;52.256;9.356;2023-11-22T02:49:00;5.17;;;2.37;;
40072;SDS011;25774;52.256;9.356;2023-11-22T02:51:25;3.80;;;2.20;;
40072;SDS011;25774;52.256;9.356;2023-11-22T02:53:51;3.47;;;2.07;;
40072;SDS011;25774;52.256;9.356;2023-11-22T02:56:17;3.17;;;1.63;;
40072;SDS011;25774;52.256;9.356;2023-11-22T02:58:42;3.80;;;1.88;;
40072;SDS011;25774;52.256;9.356;2023-11-22T03:01:08;2.80;;;1.50;;
40072;SDS011;25774;52.256;9.356;2023-11-22T03:03:33;4.70;;;2.10;;
40072;SDS011;25774;52.256;9.356;2023-11-22T03:05:59;3.13;;;1.38;;
40072;SDS011;25774;52.256;9.356;2023-11-22T03:08:24;3.23;;;1.80;;
40072;SDS011;25774;52.256;9.356;2023-11-22T03:10:59;3.95;;;2.15;;
40072;SDS011;25774;52.256;9.356;2023-11-22T03:13:24;3.42;;;1.80;;
40072;SDS011;25774;52.256;9.356;2023-11-22T03:15:49;3.73;;;2.10;;
40072;SDS011;25774;52.256;9.356;2023-11-22T03:18:14;4.87;;;2.43;;
40072;SDS011;25774;52.256;9.356;2023-11-22T03:20:41;4.60;;;2.20;;
40072;SDS011;25774;52.256;9.356;2023-11-22T03:23:09;3.95;;;1.83;;
40072;SDS011;25774;52.256;9.356;2023-11-22T03:25:36;3.50;;;1.70;;
40072;SDS011;25774;52.256;9.356;2023-11-22T03:28:02;3.60;;;1.63;;
40072;SDS011;25774;52.256;9.356;2023-11-22T03:30:28;3.90;;;2.00;;
40072;SDS011;25774;52.256;9.356;2023-11-22T03:32:53;4.35;;;2.10;;
40072;SDS011;25774;52.256;9.356;2023-11-22T03:35:19;4.45;;;2.28;;
40072;SDS011;25774;52.256;9.356;2023-11-22T03:37:44;4.00;;;1.90;;
40072;SDS011;25774;52.256;9.356;2023-11-22T03:40:10;4.10;;;2.27;;
40072;SDS011;25774;52.256;9.356;2023-11-22T03:42:38;3.13;;;1.67;;
40072;SDS011;25774;52.256;9.356;2023-11-22T03:45:04;4.55;;;2.20;;
40072;SDS011;25774;52.256;9.356;2023-11-22T03:47:30;3.40;;;1.77;;
40072;SDS011;25774;52.256;9.356;2023-11-22T03:49:56;3.55;;;1.77;;
40072;SDS011;25774;52.256;9.356;2023-11-22T03:52:21;3.40;;;1.73;;
40072;SDS011;25774;52.256;9.356;2023-11-22T03:54:47;4.10;;;2.13;;
40072;SDS011;25774;52.256;9.356;2023-11-22T03:57:12;5.00;;;2.40;;
40072;SDS011;25774;52.256;9.356;2023-11-22T03:59:37;3.40;;;1.87;;
40072;SDS011;25774;52.256;9.356;2023-11-22T04:02:02;3.40;;;1.83;;
40072;SDS011;25774;52.256;9.356;2023-11-22T04:04:27;3.40;;;1.70;;
40072;SDS011;25774;52.256;9.356;2023-11-22T04:06:53;3.60;;;1.87;;
40072;SDS011;25774;52.256;9.356;2023-11-22T04:09:18;2.07;;;1.10;;
40072;SDS011;25774;52.256;9.356;2023-11-22T04:11:45;3.28;;;1.52;;
40072;SDS011;25774;52.256;9.356;2023-11-22T04:14:11;3.08;;;1.50;;
40072;SDS011;25774;52.256;9.356;2023-11-22T04:16:36;3.00;;;1.10;;
40072;SDS011;25774;52.256;9.356;2023-11-22T04:19:02;3.20;;;1.37;;
40072;SDS011;25774;52.256;9.356;2023-11-22T04:21:27;2.03;;;1.17;;
40072;SDS011;25774;52.256;9.356;2023-11-22T04:23:52;2.57;;;1.07;;
40072;SDS011;25774;52.256;9.356;2023-11-22T04:26:17;4.53;;;1.50;;
40072;SDS011;25774;52.256;9.356;2023-11-22T04:28:45;3.30;;;1.73;;
40072;SDS011;25774;52.256;9.356;2023-11-22T04:31:10;3.10;;;1.37;;
40072;SDS011;25774;52.256;9.356;2023-11-22T04:33:35;2.00;;;1.17;;
40072;SDS011;25774;52.256;9.356;2023-11-22T04:36:01;3.42;;;1.65;;
40072;SDS011;25774;52.256;9.356;2023-11-22T04:38:26;4.37;;;2.07;;
40072;SDS011;25774;52.256;9.356;2023-11-22T04:40:52;4.60;;;2.05;;
40072;SDS011;25774;52.256;9.356;2023-11-22T04:43:17;3.70;;;1.83;;
40072;SDS011;25774;52.256;9.356;2023-11-22T04:45:43;4.93;;;1.80;;
40072;SDS011;25774;52.256;9.356;2023-11-22T04:48:08;3.27;;;1.63;;
40072;SDS011;25774;52.256;9.356;2023-11-22T04:50:34;3.28;;;1.50;;
40072;SDS011;25774;52.256;9.356;2023-11-22T04:53:01;3.47;;;1.77;;
40072;SDS011;25774;52.256;9.356;2023-11-22T04:55:30;3.20;;;1.52;;
40072;SDS011;25774;52.256;9.356;2023-11-22T04:57:55;3.03;;;1.23;;
40072;SDS011;25774;52.256;9.356;2023-11-22T05:00:21;2.70;;;1.37;;
40072;SDS011;25774;52.256;9.356;2023-11-22T05:02:47;2.67;;;1.38;;
40072;SDS011;25774;52.256;9.356;2023-11-22T05:05:13;2.30;;;1.10;;
40072;SDS011;25774;52.256;9.356;2023-11-22T05:07:38;2.00;;;1.03;;
40072;SDS011;25774;52.256;9.356;2023-11-22T05:10:04;3.73;;;1.93;;
40072;SDS011;25774;52.256;9.356;2023-11-22T05:12:30;3.33;;;1.20;;
40072;SDS011;25774;52.256;9.356;2023-11-22T05:14:55;2.37;;;1.40;;
40072;SDS011;25774;52.256;9.356;2023-11-22T05:17:21;2.83;;;1.40;;
40072;SDS011;25774;52.256;9.356;2023-11-22T05:19:47;3.30;;;1.70;;
40072;SDS011;25774;52.256;9.356;2023-11-22T05:22:13;2.88;;;1.40;;
40072;SDS011;25774;52.256;9.356;2023-11-22T05:24:39;2.20;;;1.10;;
40072;SDS011;25774;52.256;9.356;2023-11-22T05:27:06;3.40;;;1.60;;
40072;SDS011;25774;52.256;9.356;2023-11-22T05:29:32;5.15;;;1.65;;
40072;SDS011;25774;52.256;9.356;2023-11-22T05:31:57;3.90;;;1.70;;
40072;SDS011;25774;52.256;9.356;2023-11-22T05:34:23;3.87;;;1.67;;
40072;SDS011;25774;52.256;9.356;2023-11-22T05:36:48;3.47;;;1.83;;
40072;SDS011;25774;52.256;9.356;2023-11-22T05:39:14;5.70;;;2.07;;
40072;SDS011;25774;52.256;9.356;2023-11-22T05:41:40;4.35;;;2.30;;
40072;SDS011;25774;52.256;9.356;2023-11-22T05:44:05;4.93;;;2.30;;
40072;SDS011;25774;52.256;9.356;2023-11-22T05:46:33;4.05;;;2.08;;
40072;SDS011;25774;52.256;9.356;2023-11-22T05:48:58;5.33;;;2.20;;
40072;SDS011;25774;52.256;9.356;2023-11-22T05:51:26;3.22;;;1.60;;
40072;SDS011;25774;52.256;9.356;2023-11-22T05:53:52;3.10;;;1.60;;
40072;SDS011;25774;52.256;9.356;2023-11-22T05:56:18;3.67;;;1.67;;
40072;SDS011;25774;52.256;9.356;2023-11-22T05:58:44;3.67;;;1.38;;
40072;SDS011;25774;52.256;9.356;2023-11-22T06:01:09;3.63;;;1.70;;
40072;SDS011;25774;52.256;9.356;2023-11-22T06:03:36;3.25;;;1.75;;
40072;SDS011;25774;52.256;9.356;2023-11-22T06:06:05;2.08;;;1.00;;
40072;SDS011;25774;52.256;9.356;2023-11-22T06:08:30;2.92;;;1.23;;
40072;SDS011;25774;52.256;9.356;2023-11-22T06:10:56;3.53;;;1.83;;
40072;SDS011;25774;52.256;9.356;2023-11-22T06:13:24;2.40;;;1.25;;
40072;SDS011;25774;52.256;9.356;2023-11-22T06:15:50;2.03;;;1.10;;
40072;SDS011;25774;52.256;9.356;2023-11-22T06:18:15;3.45;;;1.50;;
40072;SDS011;25774;52.256;9.356;2023-11-22T06:20:43;2.70;;;1.00;;
40072;SDS011;25774;52.256;9.356;2023-11-22T06:23:09;2.45;;;1.15;;
40072;SDS011;25774;52.256;9.356;2023-11-22T06:25:34;1.97;;;0.97;;
40072;SDS011;25774;52.256;9.356;2023-11-22T06:28:02;2.78;;;1.35;;
40072;SDS011;25774;52.256;9.356;2023-11-22T06:30:28;4.03;;;1.80;;
40072;SDS011;25774;52.256;9.356;2023-11-22T06:32:53;2.50;;;1.20;;
40072;SDS011;25774;52.256;9.356;2023-11-22T06:35:19;3.15;;;1.52;;
40072;SDS011;25774;52.256;9.356;2023-11-22T06:37:44;3.47;;;1.83;;
40072;SDS011;25774;52.256;9.356;2023-11-22T06:40:11;2.30;;;1.13;;
40072;SDS011;25774;52.256;9.356;2023-11-22T06:42:40;2.20;;;1.05;;
40072;SDS011;25774;52.256;9.356;2023-11-22T06:45:05;2.80;;;1.35;;
40072;SDS011;25774;52.256;9.356;2023-11-22T06:47:35;2.58;;;1.20;;
40072;SDS011;25774;52.256;9.356;2023-11-22T06:50:00;2.53;;;1.20;;
40072;SDS011;25774;52.256;9.356;2023-11-22T06:52:25;2.80;;;1.20;;
40072;SDS011;25774;52.256;9.356;2023-11-22T06:54:50;2.70;;;1.20;;
40072;SDS011;25774;52.256;9.356;2023-11-22T06:57:16;2.13;;;1.10;;
40072;SDS011;25774;52.256;9.356;2023-11-22T06:59:41;3.37;;;1.97;;
40072;SDS011;25774;52.256;9.356;2023-11-22T07:02:07;2.90;;;1.23;;
40072;SDS011;25774;52.256;9.356;2023-11-22T07:04:33;4.07;;;1.40;;
40072;SDS011;25774;52.256;9.356;2023-11-22T07:06:59;4.32;;;2.00;;
40072;SDS011;25774;52.256;9.356;2023-11-22T07:09:25;3.03;;;1.23;;
40072;SDS011;25774;52.256;9.356;2023-11-22T07:11:51;3.30;;;1.48;;
40072;SDS011;25774;52.256;9.356;2023-11-22T07:14:17;2.83;;;1.30;;
40072;SDS011;25774;52.256;9.356;2023-11-22T07:16:42;3.57;;;1.60;;
40072;SDS011;25774;52.256;9.356;2023-11-22T07:19:07;2.93;;;1.40;;
40072;SDS011;25774;52.256;9.356;2023-11-22T07:21:32;4.07;;;1.80;;
40072;SDS011;25774;52.256;9.356;2023-11-22T07:23:59;4.53;;;1.90;;
40072;SDS011;25774;52.256;9.356;2023-11-22T07:26:25;3.90;;;1.77;;
40072;SDS011;25774;52.256;9.356;2023-11-22T07:28:52;4.22;;;1.55;;
40072;SDS011;25774;52.256;9.356;2023-11-22T07:31:17;3.25;;;1.40;;
40072;SDS011;25774;52.256;9.356;2023-11-22T07:33:43;3.37;;;1.30;;
40072;SDS011;25774;52.256;9.356;2023-11-22T07:36:08;2.88;;;1.40;;
40072;SDS011;25774;52.256;9.356;2023-11-22T07:38:34;3.38;;;1.50;;
40072;SDS011;25774;52.256;9.356;2023-11-22T07:40:59;3.07;;;1.40;;
40072;SDS011;25774;52.256;9.356;2023-11-22T07:43:26;3.60;;;1.70;;
40072;SDS011;25774;52.256;9.356;2023-11-22T07:45:51;3.38;;;1.52;;
40072;SDS011;25774;52.256;9.356;2023-11-22T07:48:17;3.23;;;1.33;;
40072;SDS011;25774;52.256;9.356;2023-11-22T07:50:43;3.30;;;1.33;;
40072;SDS011;25774;52.256;9.356;2023-11-22T07:53:11;2.83;;;1.42;;
40072;SDS011;25774;52.256;9.356;2023-11-22T07:55:37;1.88;;;1.10;;
40072;SDS011;25774;52.256;9.356;2023-11-22T07:58:02;3.10;;;1.20;;
40072;SDS011;25774;52.256;9.356;2023-11-22T08:00:28;1.67;;;0.90;;
40072;SDS011;25774;52.256;9.356;2023-11-22T08:02:54;2.05;;;1.05;;
40072;SDS011;25774;52.256;9.356;2023-11-22T08:05:20;3.10;;;1.30;;
40072;SDS011;25774;52.256;9.356;2023-11-22T08:07:49;2.15;;;0.80;;
40072;SDS011;25774;52.256;9.356;2023-11-22T08:10:15;2.10;;;0.90;;
40072;SDS011;25774;52.256;9.356;2023-11-22T08:12:47;2.10;;;0.98;;
40072;SDS011;25774;52.256;9.356;2023-11-22T08:15:14;1.55;;;0.75;;
40072;SDS011;25774;52.256;9.356;2023-11-22T08:17:42;3.85;;;1.08;;
40072;SDS011;25774;52.256;9.356;2023-11-22T08:20:08;1.25;;;0.70;;
40072;SDS011;25774;52.256;9.356;2023-11-22T08:22:38;1.65;;;0.77;;
40072;SDS011;25774;52.256;9.356;2023-11-22T08:25:04;2.63;;;1.17;;
40072;SDS011;25774;52.256;9.356;2023-11-22T08:27:30;2.20;;;1.05;;
40072;SDS011;25774;52.256;9.356;2023-11-22T08:29:56;1.73;;;0.80;;
40072;SDS011;25774;52.256;9.356;2023-11-22T08:32:21;1.70;;;1.00;;
40072;SDS011;25774;52.256;9.356;2023-11-22T08:34:51;2.08;;;1.13;;
40072;SDS011;25774;52.256;9.356;2023-11-22T08:37:17;1.83;;;0.70;;
40072;SDS011;25774;52.256;9.356;2023-11-22T08:39:42;1.57;;;0.83;;
40072;SDS011;25774;52.256;9.356;2023-11-22T08:42:08;1.38;;;0.85;;
40072;SDS011;25774;52.256;9.356;2023-11-22T08:44:37;1.85;;;0.80;;
40072;SDS011;25774;52.256;9.356;2023-11-22T08:47:03;1.52;;;1.10;;
40072;SDS011;25774;52.256;9.356;2023-11-22T08:49:28;2.07;;;0.93;;
40072;SDS011;25774;52.256;9.356;2023-11-22T08:51:53;1.73;;;0.87;;
40072;SDS011;25774;52.256;9.356;2023-11-22T08:54:19;1.47;;;0.60;;
40072;SDS011;25774;52.256;9.356;2023-11-22T08:56:44;2.20;;;1.27;;
40072;SDS011;25774;52.256;9.356;2023-11-22T08:59:12;1.30;;;0.80;;
40072;SDS011;25774;52.256;9.356;2023-11-22T09:01:37;2.57;;;0.80;;
40072;SDS011;25774;52.256;9.356;2023-11-22T09:04:02;0.93;;;0.60;;
40072;SDS011;25774;52.256;9.356;2023-11-22T09:06:27;2.00;;;1.07;;
40072;SDS011;25774;52.256;9.356;2023-11-22T09:08:54;2.40;;;1.15;;
40072;SDS011;25774;52.256;9.356;2023-11-22T09:13:47;1.58;;;0.95;;
40072;SDS011;25774;52.256;9.356;2023-11-22T09:16:12;2.30;;;1.07;;
40072;SDS011;25774;52.256;9.356;2023-11-22T09:18:38;1.40;;;0.80;;
40072;SDS011;25774;52.256;9.356;2023-11-22T09:21:04;1.20;;;0.80;;
40072;SDS011;25774;52.256;9.356;2023-11-22T09:23:30;2.00;;;0.90;;
40072;SDS011;25774;52.256;9.356;2023-11-22T09:25:55;1.77;;;0.90;;
40072;SDS011;25774;52.256;9.356;2023-11-22T09:28:20;2.77;;;0.90;;
40072;SDS011;25774;52.256;9.356;2023-11-22T09:30:48;1.50;;;0.80;;
40072;SDS011;25774;52.256;9.356;2023-11-22T09:33:14;1.95;;;0.98;;
40072;SDS011;25774;52.256;9.356;2023-11-22T09:35:40;2.03;;;1.00;;
40072;SDS011;25774;52.256;9.356;2023-11-22T09:38:06;1.90;;;0.90;;
40072;SDS011;25774;52.256;9.356;2023-11-22T09:40:35;2.05;;;0.98;;
40072;SDS011;25774;52.256;9.356;2023-11-22T09:43:01;2.60;;;1.30;;
40072;SDS011;25774;52.256;9.356;2023-11-22T09:45:28;2.42;;;1.17;;
40072;SDS011;25774;52.256;9.356;2023-11-22T09:47:54;2.25;;;1.10;;
40072;SDS011;25774;52.256;9.356;2023-11-22T09:50:22;1.77;;;1.00;;
40072;SDS011;25774;52.256;9.356;2023-11-22T09:52:52;2.65;;;1.20;;
40072;SDS011;25774;52.256;9.356;2023-11-22T09:55:24;2.05;;;1.10;;
40072;SDS011;25774;52.256;9.356;2023-11-22T09:57:51;2.47;;;1.05;;
40072;SDS011;25774;52.256;9.356;2023-11-22T10:02:43;2.50;;;1.30;;
40072;SDS011;25774;52.256;9.356;2023-11-22T10:05:09;2.17;;;1.08;;
40072;SDS011;25774;52.256;9.356;2023-11-22T10:07:34;1.90;;;1.00;;
40072;SDS011;25774;52.256;9.356;2023-11-22T10:10:01;2.30;;;1.13;;
40072;SDS011;25774;52.256;9.356;2023-11-22T10:12:30;2.65;;;1.35;;
40072;SDS011;25774;52.256;9.356;2023-11-22T10:14:55;2.43;;;1.27;;
40072;SDS011;25774;52.256;9.356;2023-11-22T10:17:35;3.30;;;1.60;;
40072;SDS011;25774;52.256;9.356;2023-11-22T10:20:00;2.17;;;1.20;;
40072;SDS011;25774;52.256;9.356;2023-11-22T10:22:27;2.13;;;1.10;;
40072;SDS011;25774;52.256;9.356;2023-11-22T10:24:53;3.22;;;1.42;;
40072;SDS011;25774;52.256;9.356;2023-11-22T10:27:20;3.17;;;1.27;;
40072;SDS011;25774;52.256;9.356;2023-11-22T10:29:45;2.13;;;1.13;;
40072;SDS011;25774;52.256;9.356;2023-11-22T10:32:12;2.45;;;1.20;;
40072;SDS011;25774;52.256;9.356;2023-11-22T10:34:38;2.17;;;1.00;;
40072;SDS011;25774;52.256;9.356;2023-11-22T10:37:04;2.22;;;1.02;;
40072;SDS011;25774;52.256;9.356;2023-11-22T10:39:29;1.60;;;1.00;;
40072;SDS011;25774;52.256;9.356;2023-11-22T10:41:56;2.33;;;1.00;;
40072;SDS011;25774;52.256;9.356;2023-11-22T10:44:22;2.85;;;1.42;;
40072;SDS011;25774;52.256;9.356;2023-11-22T10:46:48;2.00;;;1.00;;
40072;SDS011;25774;52.256;9.356;2023-11-22T10:49:13;2.10;;;0.98;;
40072;SDS011;25774;52.256;9.356;2023-11-22T10:51:39;2.23;;;1.30;;
40072;SDS011;25774;52.256;9.356;2023-11-22T10:54:05;2.50;;;1.23;;
40072;SDS011;25774;52.256;9.356;2023-11-22T10:56:41;2.25;;;1.17;;
40072;SDS011;25774;52.256;9.356;2023-11-22T10:59:10;2.33;;;1.27;;
40072;SDS011;25774;52.256;9.356;2023-11-22T11:01:36;2.53;;;1.20;;
40072;SDS011;25774;52.256;9.356;2023-11-22T11:04:02;2.40;;;1.10;;
40072;SDS011;25774;52.256;9.356;2023-11-22T11:06:32;2.53;;;1.27;;
40072;SDS011;25774;52.256;9.356;2023-11-22T11:08:59;2.28;;;1.02;;
40072;SDS011;25774;52.256;9.356;2023-11-22T11:13:50;2.03;;;1.02;;
40072;SDS011;25774;52.256;9.356;2023-11-22T11:16:16;1.63;;;1.00;;
40072;SDS011;25774;52.256;9.356;2023-11-22T11:18:42;2.27;;;0.93;;
40072;SDS011;25774;52.256;9.356;2023-11-22T11:21:08;3.13;;;1.27;;
40072;SDS011;25774;52.256;9.356;2023-11-22T11:23:37;3.13;;;1.77;;
40072;SDS011;25774;52.256;9.356;2023-11-22T11:26:36;2.85;;;1.35;;
40072;SDS011;25774;52.256;9.356;2023-11-22T11:28:56;2.58;;;1.23;;
40072;SDS011;25774;52.256;9.356;2023-11-22T11:31:21;3.85;;;1.50;;
40072;SDS011;25774;52.256;9.356;2023-11-22T11:36:12;3.10;;;1.57;;
40072;SDS011;25774;52.256;9.356;2023-11-22T11:38:37;2.37;;;1.10;;
40072;SDS011;25774;52.256;9.356;2023-11-22T11:41:09;2.27;;;1.70;;
40072;SDS011;25774;52.256;9.356;2023-11-22T11:43:46;2.78;;;1.30;;
40072;SDS011;25774;52.256;9.356;2023-11-22T11:46:12;2.65;;;1.35;;
40072;SDS011;25774;52.256;9.356;2023-11-22T11:48:42;2.38;;;1.20;;
40072;SDS011;25774;52.256;9.356;2023-11-22T11:51:08;2.55;;;1.23;;
40072;SDS011;25774;52.256;9.356;2023-11-22T11:53:33;1.77;;;0.80;;
40072;SDS011;25774;52.256;9.356;2023-11-22T11:55:59;2.17;;;1.00;;
40072;SDS011;25774;52.256;9.356;2023-11-22T11:58:24;2.20;;;0.90;;
40072;SDS011;25774;52.256;9.356;2023-11-22T12:00:54;1.67;;;0.83;;
40072;SDS011;25774;52.256;9.356;2023-11-22T12:03:20;2.00;;;1.00;;
40072;SDS011;25774;52.256;9.356;2023-11-22T12:05:47;2.22;;;1.00;;
40072;SDS011;25774;52.256;9.356;2023-11-22T12:08:16;2.65;;;1.45;;
40072;SDS011;25774;52.256;9.356;2023-11-22T12:10:42;3.78;;;1.75;;
40072;SDS011;25774;52.256;9.356;2023-11-22T12:13:07;3.22;;;1.40;;
40072;SDS011;25774;52.256;9.356;2023-11-22T12:15:33;4.80;;;1.70;;
40072;SDS011;25774;52.256;9.356;2023-11-22T12:18:00;3.22;;;1.30;;
40072;SDS011;25774;52.256;9.356;2023-11-22T12:20:26;2.65;;;1.55;;
40072;SDS011;25774;52.256;9.356;2023-11-22T12:22:56;2.53;;;1.45;;
40072;SDS011;25774;52.256;9.356;2023-11-22T12:25:22;4.60;;;1.90;;
40072;SDS011;25774;52.256;9.356;2023-11-22T12:27:48;2.72;;;1.55;;
40072;SDS011;25774;52.256;9.356;2023-11-22T12:33:02;3.08;;;1.40;;
40072;SDS011;25774;52.256;9.356;2023-11-22T12:35:28;3.17;;;1.45;;
40072;SDS011;25774;52.256;9.356;2023-11-22T12:37:53;4.50;;;1.70;;
40072;SDS011;25774;52.256;9.356;2023-11-22T12:42:46;2.90;;;1.38;;
40072;SDS011;25774;52.256;9.356;2023-11-22T12:45:24;2.70;;;1.30;;
40072;SDS011;25774;52.256;9.356;2023-11-22T12:47:50;3.55;;;1.48;;
40072;SDS011;25774;52.256;9.356;2023-11-22T12:50:35;3.22;;;1.48;;
40072;SDS011;25774;52.256;9.356;2023-11-22T12:53:10;3.35;;;1.38;;
40072;SDS011;25774;52.256;9.356;2023-11-22T12:55:36;3.20;;;1.30;;
40072;SDS011;25774;52.256;9.356;2023-11-22T12:58:01;3.28;;;1.65;;
40072;SDS011;25774;52.256;9.356;2023-11-22T13:00:28;3.60;;;1.88;;
40072;SDS011;25774;52.256;9.356;2023-11-22T13:02:55;4.07;;;1.80;;
40072;SDS011;25774;52.256;9.356;2023-11-22T13:05:21;4.47;;;2.08;;
40072;SDS011;25774;52.256;9.356;2023-11-22T13:07:46;4.30;;;2.00;;
40072;SDS011;25774;52.256;9.356;2023-11-22T13:10:12;4.30;;;1.60;;
40072;SDS011;25774;52.256;9.356;2023-11-22T13:12:37;3.67;;;1.90;;
40072;SDS011;25774;52.256;9.356;2023-11-22T13:15:02;4.17;;;2.13;;
40072;SDS011;25774;52.256;9.356;2023-11-22T13:17:29;3.38;;;1.73;;
40072;SDS011;25774;52.256;9.356;2023-11-22T13:19:54;3.30;;;2.00;;
40072;SDS011;25774;52.256;9.356;2023-11-22T13:22:19;3.60;;;1.60;;
40072;SDS011;25774;52.256;9.356;2023-11-22T13:24:45;4.80;;;2.13;;
40072;SDS011;25774;52.256;9.356;2023-11-22T13:27:10;3.73;;;1.63;;
40072;SDS011;25774;52.256;9.356;2023-11-22T13:29:35;3.37;;;1.90;;
40072;SDS011;25774;52.256;9.356;2023-11-22T13:32:01;3.90;;;1.97;;
40072;SDS011;25774;52.256;9.356;2023-11-22T13:34:27;3.70;;;1.95;;
40072;SDS011;25774;52.256;9.356;2023-11-22T13:36:52;3.83;;;2.00;;
40072;SDS011;25774;52.256;9.356;2023-11-22T13:39:17;6.67;;;2.17;;
40072;SDS011;25774;52.256;9.356;2023-11-22T13:41:42;4.37;;;1.70;;
40072;SDS011;25774;52.256;9.356;2023-11-22T13:44:07;4.43;;;1.87;;
40072;SDS011;25774;52.256;9.356;2023-11-22T13:46:33;3.77;;;2.03;;
40072;SDS011;25774;52.256;9.356;2023-11-22T13:48:58;3.30;;;1.73;;
40072;SDS011;25774;52.256;9.356;2023-11-22T13:51:24;4.03;;;1.50;;
40072;SDS011;25774;52.256;9.356;2023-11-22T13:53:50;2.63;;;1.40;;
40072;SDS011;25774;52.256;9.356;2023-11-22T13:56:18;3.42;;;1.52;;
40072;SDS011;25774;52.256;9.356;2023-11-22T13:58:43;3.80;;;2.10;;
40072;SDS011;25774;52.256;9.356;2023-11-22T14:01:08;3.47;;;1.73;;
40072;SDS011;25774;52.256;9.356;2023-11-22T14:03:38;2.60;;;1.30;;
40072;SDS011;25774;52.256;9.356;2023-11-22T14:06:04;3.27;;;1.63;;
40072;SDS011;25774;52.256;9.356;2023-11-22T14:08:29;3.70;;;1.57;;
40072;SDS011;25774;52.256;9.356;2023-11-22T14:10:56;4.03;;;1.40;;
40072;SDS011;25774;52.256;9.356;2023-11-22T14:13:21;2.58;;;1.27;;
40072;SDS011;25774;52.256;9.356;2023-11-22T14:15:47;2.38;;;1.13;;
40072;SDS011;25774;52.256;9.356;2023-11-22T14:18:12;2.33;;;1.40;;
40072;SDS011;25774;52.256;9.356;2023-11-22T14:20:37;2.53;;;1.20;;
40072;SDS011;25774;52.256;9.356;2023-11-22T14:23:03;2.03;;;1.00;;
40072;SDS011;25774;52.256;9.356;2023-11-22T14:25:30;2.07;;;1.00;;
40072;SDS011;25774;52.256;9.356;2023-11-22T14:27:56;1.65;;;0.93;;
40072;SDS011;25774;52.256;9.356;2023-11-22T14:30:23;2.05;;;1.15;;
40072;SDS011;25774;52.256;9.356;2023-11-22T14:32:50;1.40;;;0.90;;
40072;SDS011;25774;52.256;9.356;2023-11-22T14:35:16;2.03;;;1.10;;
40072;SDS011;25774;52.256;9.356;2023-11-22T14:37:42;1.75;;;0.90;;
40072;SDS011;25774;52.256;9.356;2023-11-22T14:40:11;1.55;;;0.90;;
40072;SDS011;25774;52.256;9.356;2023-11-22T14:42:46;1.20;;;0.73;;
40072;SDS011;25774;52.256;9.356;2023-11-22T14:45:16;1.48;;;0.88;;
40072;SDS011;25774;52.256;9.356;2023-11-22T14:47:45;1.45;;;0.80;;
40072;SDS011;25774;52.256;9.356;2023-11-22T14:50:10;2.10;;;1.00;;
40072;SDS011;25774;52.256;9.356;2023-11-22T14:52:37;2.15;;;1.00;;
40072;SDS011;25774;52.256;9.356;2023-11-22T14:55:02;2.47;;;1.33;;
40072;SDS011;25774;52.256;9.356;2023-11-22T14:57:29;3.05;;;1.40;;
40072;SDS011;25774;52.256;9.356;2023-11-22T14:59:55;1.90;;;1.23;;